Time;durP1;ratioP1;P1;durP2;ratioP2;P2;SDS_P1;SDS_P2;PMS_P1;PMS_P2;Temp;Humidity;BMP_temperature;BMP_pressure;BME280_temperature;BME280_humidity;BME280_pressure;Samples;Min_cycle;Max_cycle;Signal;HPM_P1;HPM_P2
2024/01/19 00:02:48;;;;;;;14.07;9.97;;;1.60;90.10;;;;;;10526911;28;20215;-65
2024/01/19 00:07:53;;;;;;;13.20;9.70;;;1.60;90.10;;;;;;10524565;28;20197;-64
2024/01/19 00:12:56;;;;;;;13.43;9.10;;;1.60;90.60;;;;;;10533600;28;20230;-65
2024/01/19 00:18:00;;;;;;;14.33;10.27;;;1.60;90.20;;;;;;10532983;28;20223;-65
2024/01/19 00:23:05;;;;;;;15.80;11.47;;;1.60;90.20;;;;;;10538548;28;20226;-65
2024/01/19 00:28:09;;;;;;;15.20;11.30;;;1.60;90.20;;;;;;10533635;28;20196;-65
2024/01/19 00:33:12;;;;;;;15.87;11.27;;;1.60;90.20;;;;;;10532791;28;20730;-65
2024/01/19 00:38:17;;;;;;;18.17;12.53;;;1.60;90.10;;;;;;10536371;28;20857;-65
2024/01/19 00:43:21;;;;;;;19.30;13.37;;;1.60;90.20;;;;;;10533206;28;20587;-66
2024/01/19 00:48:24;;;;;;;22.27;14.57;;;1.50;90.10;;;;;;10536717;28;20648;-65
2024/01/19 00:53:30;;;;;;;24.83;15.70;;;1.50;90.20;;;;;;10534054;28;20229;-64
2024/01/19 00:58:33;;;;;;;25.97;16.93;;;1.50;90.20;;;;;;10534709;28;20222;-65
2024/01/19 01:03:37;;;;;;;27.93;17.50;;;1.50;90.10;;;;;;10533231;28;20218;-65
2024/01/19 01:08:42;;;;;;;29.57;18.90;;;1.50;90.10;;;;;;10532826;28;20244;-65
2024/01/19 01:13:46;;;;;;;31.17;19.40;;;1.50;90.10;;;;;;10531433;28;20229;-65
2024/01/19 01:18:50;;;;;;;30.10;19.33;;;1.40;90.00;;;;;;10535933;28;20284;-65
2024/01/19 01:23:55;;;;;;;32.30;19.67;;;1.50;90.00;;;;;;10539306;28;20197;-65
2024/01/19 01:28:59;;;;;;;27.37;18.47;;;1.40;90.00;;;;;;10528944;28;20256;-64
2024/01/19 01:34:03;;;;;;;28.53;19.27;;;1.40;90.00;;;;;;10537916;28;20202;-65
2024/01/19 01:39:11;;;;;;;27.73;18.33;;;1.40;90.00;;;;;;10540057;28;20217;-64
2024/01/19 01:44:17;;;;;;;25.07;17.67;;;1.40;89.90;;;;;;10536456;28;20495;-65
2024/01/19 01:49:21;;;;;;;25.33;17.47;;;1.30;89.70;;;;;;10540425;28;20620;-64
2024/01/19 01:54:28;;;;;;;23.43;16.87;;;1.30;89.50;;;;;;10537627;28;20228;-65
2024/01/19 01:59:31;;;;;;;20.17;14.60;;;1.30;89.60;;;;;;10538794;28;20221;-66
2024/01/19 02:04:35;;;;;;;22.00;15.00;;;1.30;89.90;;;;;;10538000;28;20236;-65
2024/01/19 02:09:40;;;;;;;21.33;15.47;;;1.20;90.00;;;;;;10538283;28;20271;-66
2024/01/19 02:14:44;;;;;;;19.97;14.57;;;1.20;90.50;;;;;;10536544;28;20256;-65
2024/01/19 02:19:47;;;;;;;23.13;15.13;;;1.20;90.30;;;;;;10536333;28;20614;-65
2024/01/19 02:24:52;;;;;;;19.90;14.43;;;1.20;90.60;;;;;;10538868;28;20291;-66
2024/01/19 02:29:56;;;;;;;21.40;14.80;;;1.20;90.10;;;;;;10537866;28;20611;-65
2024/01/19 02:34:59;;;;;;;19.17;14.23;;;1.30;90.50;;;;;;10536341;28;20642;-64
2024/01/19 02:40:05;;;;;;;18.47;14.90;;;1.30;90.10;;;;;;10537437;28;20279;-65
2024/01/19 02:45:09;;;;;;;24.00;15.67;;;1.20;90.40;;;;;;10538278;28;20206;-66
2024/01/19 02:50:13;;;;;;;23.87;16.30;;;1.20;90.70;;;;;;10539702;28;20782;-66
2024/01/19 02:55:18;;;;;;;22.90;15.63;;;1.20;90.50;;;;;;10535408;28;20194;-64
2024/01/19 03:00:21;;;;;;;23.40;16.67;;;1.20;90.60;;;;;;10540553;28;20278;-65
2024/01/19 03:05:25;;;;;;;23.57;16.93;;;1.10;90.80;;;;;;10537263;28;20202;-64
2024/01/19 03:10:30;;;;;;;26.13;16.87;;;1.10;90.60;;;;;;10535488;28;20252;-63
2024/01/19 03:15:33;;;;;;;31.07;20.73;;;1.10;91.00;;;;;;10536129;28;20677;-63
2024/01/19 03:20:37;;;;;;;30.17;20.40;;;1.20;91.70;;;;;;10538801;28;20230;-63
2024/01/19 03:25:42;;;;;;;32.67;20.77;;;1.20;91.40;;;;;;10538421;28;20199;-62
2024/01/19 03:30:46;;;;;;;34.97;21.73;;;1.20;91.30;;;;;;10536456;28;20569;-63
2024/01/19 03:35:49;;;;;;;33.47;20.13;;;1.20;91.40;;;;;;10536297;28;20199;-63
2024/01/19 03:40:54;;;;;;;37.53;21.73;;;1.20;91.90;;;;;;10536680;28;20222;-63
2024/01/19 03:45:58;;;;;;;37.83;21.90;;;1.20;91.60;;;;;;10532525;28;20233;-64
2024/01/19 03:51:01;;;;;;;35.73;22.00;;;1.30;91.50;;;;;;10533285;28;20234;-63
2024/01/19 03:56:09;;;;;;;42.93;24.13;;;1.20;92.00;;;;;;10533762;28;20735;-63
2024/01/19 04:01:13;;;;;;;37.40;21.87;;;1.20;91.80;;;;;;10533094;28;20229;-66
2024/01/19 04:06:16;;;;;;;38.60;22.30;;;1.20;91.80;;;;;;10533925;28;20230;-65
2024/01/19 04:11:21;;;;;;;42.60;22.07;;;1.20;92.50;;;;;;10532604;28;20688;-65
2024/01/19 04:16:25;;;;;;;40.00;22.00;;;1.20;92.70;;;;;;10534209;28;20247;-65
2024/01/19 04:21:29;;;;;;;44.00;23.53;;;1.30;92.20;;;;;;10533626;28;20222;-65
2024/01/19 04:26:34;;;;;;;41.40;21.53;;;1.40;92.70;;;;;;10533475;28;20247;-66
2024/01/19 04:31:38;;;;;;;38.23;21.30;;;1.40;92.10;;;;;;10537642;28;20220;-65
2024/01/19 04:36:42;;;;;;;37.77;21.40;;;1.40;92.40;;;;;;10532972;28;20212;-64
2024/01/19 04:41:47;;;;;;;43.50;21.57;;;1.40;92.60;;;;;;10533204;28;20221;-64
2024/01/19 04:46:50;;;;;;;40.03;22.27;;;1.40;92.50;;;;;;10534759;28;20255;-66
2024/01/19 04:51:54;;;;;;;41.77;22.87;;;1.40;92.80;;;;;;10535193;28;20226;-65
2024/01/19 04:56:59;;;;;;;35.70;19.90;;;1.40;92.50;;;;;;10533180;28;20323;-66
2024/01/19 05:02:03;;;;;;;44.63;23.03;;;1.40;92.50;;;;;;10542355;28;20214;-65
2024/01/19 05:07:06;;;;;;;44.07;23.80;;;1.40;92.70;;;;;;10542495;28;20211;-66
2024/01/19 05:12:11;;;;;;;36.07;20.27;;;1.40;92.50;;;;;;10539564;28;20606;-65
2024/01/19 05:17:15;;;;;;;51.30;24.90;;;1.50;92.80;;;;;;10535054;28;20258;-65
2024/01/19 05:22:18;;;;;;;47.53;23.50;;;1.40;93.20;;;;;;10534144;28;20225;-65
2024/01/19 05:27:23;;;;;;;41.37;23.57;;;1.50;93.60;;;;;;10530624;28;20198;-65
2024/01/19 05:32:27;;;;;;;41.47;23.33;;;1.50;93.30;;;;;;10533700;28;20277;-64
2024/01/19 05:37:30;;;;;;;44.50;23.13;;;1.50;93.50;;;;;;10531007;28;20218;-66
2024/01/19 05:42:35;;;;;;;42.40;22.17;;;1.60;93.40;;;;;;10537733;28;20696;-63
2024/01/19 05:47:40;;;;;;;43.80;22.87;;;1.60;93.50;;;;;;10545569;28;20190;-65
2024/01/19 05:52:46;;;;;;;46.30;22.00;;;1.60;93.80;;;;;;10530594;28;20251;-64
2024/01/19 05:57:50;;;;;;;48.77;23.50;;;1.60;94.00;;;;;;10533477;28;20218;-64
2024/01/19 06:02:54;;;;;;;47.83;24.07;;;1.60;93.60;;;;;;10531653;28;20218;-65
2024/01/19 06:07:58;;;;;;;47.67;23.00;;;1.70;93.60;;;;;;10537770;28;20199;-65
2024/01/19 06:13:03;;;;;;;44.10;23.17;;;1.70;93.90;;;;;;10547547;28;20291;-64
2024/01/19 06:18:07;;;;;;;43.87;22.60;;;1.70;94.00;;;;;;10546502;28;20593;-65
2024/01/19 06:23:12;;;;;;;41.87;21.77;;;1.70;94.20;;;;;;10550476;28;20219;-65
2024/01/19 06:28:17;;;;;;;41.93;22.33;;;1.70;93.80;;;;;;10552366;28;20205;-65
2024/01/19 06:33:21;;;;;;;41.83;23.17;;;1.80;94.10;;;;;;10554044;28;20217;-68
2024/01/19 06:38:25;;;;;;;40.40;22.30;;;1.80;93.60;;;;;;10555721;28;20202;-70
2024/01/19 06:43:29;;;;;;;43.37;23.07;;;1.80;93.80;;;;;;10544322;28;20221;-68
2024/01/19 06:48:33;;;;;;;42.47;23.03;;;1.80;93.50;;;;;;10540371;28;20202;-71
2024/01/19 06:53:38;;;;;;;39.77;22.50;;;1.80;93.60;;;;;;10538372;28;20233;-74
2024/01/19 06:58:43;;;;;;;52.92;35.00;;;1.80;93.40;;;;;;10533263;28;20510;-62
2024/01/19 07:03:47;;;;;;;44.83;23.23;;;2.00;93.90;;;;;;10532520;28;20223;-64
2024/01/19 07:08:50;;;;;;;41.00;23.33;;;2.00;94.10;;;;;;10540951;28;20254;-60
2024/01/19 07:13:55;;;;;;;42.00;24.43;;;2.00;93.70;;;;;;10539241;28;20226;-62
2024/01/19 07:18:59;;;;;;;44.70;24.70;;;2.00;93.50;;;;;;10540566;28;20592;-66
2024/01/19 07:24:02;;;;;;;46.00;24.00;;;1.90;93.60;;;;;;10540995;28;20230;-63
2024/01/19 07:29:09;;;;;;;47.93;25.00;;;1.90;93.70;;;;;;10541330;28;20189;-63
2024/01/19 07:34:12;;;;;;;50.47;26.73;;;1.90;93.70;;;;;;10533605;28;20194;-62
2024/01/19 07:39:18;;;;;;;50.50;27.77;;;1.80;93.50;;;;;;10534331;28;20259;-64
2024/01/19 07:44:23;;;;;;;49.40;26.50;;;1.80;93.70;;;;;;10537248;28;20598;-66
2024/01/19 07:49:27;;;;;;;46.67;25.03;;;1.80;93.80;;;;;;10545242;28;20242;-64
2024/01/19 07:54:31;;;;;;;51.10;27.20;;;1.90;93.80;;;;;;10535807;28;20259;-66
2024/01/19 07:59:36;;;;;;;50.37;28.23;;;1.80;93.80;;;;;;10551162;28;20225;-62
2024/01/19 08:04:39;;;;;;;47.70;27.77;;;1.90;94.20;;;;;;10535882;28;20205;-64
2024/01/19 08:09:43;;;;;;;41.23;25.00;;;2.00;94.10;;;;;;10470213;28;20249;-66
2024/01/19 08:14:48;;;;;;;41.90;24.27;;;2.00;93.80;;;;;;10419802;28;20213;-63
2024/01/19 08:19:51;;;;;;;43.10;26.03;;;2.00;93.70;;;;;;10423477;28;20284;-63
2024/01/19 08:24:55;;;;;;;40.37;25.70;;;2.00;93.50;;;;;;10416500;28;20230;-65
2024/01/19 08:30:00;;;;;;;40.57;25.87;;;2.00;94.00;;;;;;10426408;28;20254;-64
2024/01/19 08:35:08;;;;;;;45.17;26.87;;;2.00;93.50;;;;;;10416659;28;20230;-64
2024/01/19 08:40:13;;;;;;;49.57;28.97;;;2.00;93.80;;;;;;10409280;28;20235;-63
2024/01/19 08:45:18;;;;;;;46.73;27.97;;;2.10;94.00;;;;;;10407050;28;20216;-65
2024/01/19 08:50:22;;;;;;;47.53;27.13;;;2.20;93.90;;;;;;10409435;28;20277;-64
2024/01/19 08:55:26;;;;;;;44.03;27.20;;;2.30;94.00;;;;;;10409634;28;20571;-65
2024/01/19 09:00:31;;;;;;;40.23;26.80;;;2.30;93.60;;;;;;10409559;28;20247;-64
2024/01/19 09:05:35;;;;;;;38.40;25.53;;;2.30;93.70;;;;;;10409614;28;20261;-63
2024/01/19 09:10:39;;;;;;;39.73;26.50;;;2.20;93.40;;;;;;10409086;28;20228;-63
2024/01/19 09:15:44;;;;;;;40.03;25.47;;;2.10;93.20;;;;;;10420545;28;20268;-63
2024/01/19 09:20:47;;;;;;;45.17;27.27;;;2.10;93.20;;;;;;10414952;28;20230;-67
2024/01/19 09:25:51;;;;;;;41.13;25.13;;;2.10;93.40;;;;;;10408909;28;20208;-65
2024/01/19 09:30:56;;;;;;;44.17;26.40;;;2.10;93.40;;;;;;10411628;28;20270;-64
2024/01/19 09:35:59;;;;;;;41.97;25.93;;;2.10;93.30;;;;;;10408808;28;20671;-64
2024/01/19 09:41:09;;;;;;;45.37;25.13;;;2.10;93.90;;;;;;10408794;28;20304;-62
2024/01/19 09:46:19;;;;;;;41.93;24.87;;;2.20;93.70;;;;;;10408845;28;20265;-63
2024/01/19 09:51:33;;;;;;;40.17;25.20;;;2.30;93.70;;;;;;10416310;28;20215;-64
2024/01/19 09:56:38;;;;;;;43.40;25.43;;;2.30;93.40;;;;;;10423493;28;20200;-63
2024/01/19 10:01:43;;;;;;;43.57;26.37;;;2.30;93.40;;;;;;10413180;28;20223;-63
2024/01/19 10:06:47;;;;;;;39.50;24.63;;;2.40;93.60;;;;;;10416112;28;20195;-63
2024/01/19 10:11:53;;;;;;;42.50;25.67;;;2.40;93.50;;;;;;10417422;28;20305;-63
2024/01/19 10:16:59;;;;;;;39.40;23.23;;;2.40;93.60;;;;;;10422727;28;20264;-62
2024/01/19 10:22:24;;;;;;;37.23;23.43;;;2.40;93.40;;;;;;10420798;28;20309;-63
2024/01/19 10:27:39;;;;;;;37.53;22.53;;;2.50;93.60;;;;;;10416294;28;20614;-64
2024/01/19 10:32:46;;;;;;;37.83;23.73;;;2.60;93.60;;;;;;10421603;28;20282;-62
2024/01/19 10:37:50;;;;;;;36.17;22.43;;;2.70;94.00;;;;;;10425645;28;20204;-67
2024/01/19 10:42:56;;;;;;;36.53;22.60;;;2.70;93.50;;;;;;10419391;28;20245;-67
2024/01/19 10:48:03;;;;;;;37.63;24.60;;;2.90;93.60;;;;;;10429122;28;20265;-66
2024/01/19 10:53:14;;;;;;;38.63;24.97;;;3.00;93.70;;;;;;10430210;28;20222;-61
2024/01/19 10:58:17;;;;;;;41.73;26.27;;;3.10;93.70;;;;;;10428452;28;20715;-62
2024/01/19 11:03:22;;;;;;;39.90;24.40;;;3.10;93.30;;;;;;10417149;28;20316;-61
2024/01/19 11:08:28;;;;;;;39.70;26.03;;;3.00;93.50;;;;;;10437868;28;20199;-62
2024/01/19 11:13:37;;;;;;;41.97;26.50;;;3.10;93.50;;;;;;10412462;28;20231;-62
2024/01/19 11:18:44;;;;;;;39.37;25.43;;;3.10;93.30;;;;;;10428686;28;20257;-68
2024/01/19 11:23:48;;;;;;;41.60;26.03;;;3.00;93.40;;;;;;10433139;28;20694;-66
2024/01/19 11:28:56;;;;;;;43.63;26.53;;;3.00;93.50;;;;;;10426718;28;20261;-65
2024/01/19 11:34:02;;;;;;;38.13;23.33;;;3.00;93.60;;;;;;10416210;28;20211;-63
2024/01/19 11:39:06;;;;;;;46.50;27.60;;;3.20;93.80;;;;;;10421816;28;20601;-64
2024/01/19 11:44:31;;;;;;;38.03;25.37;;;3.20;93.40;;;;;;10413124;28;20259;-66
2024/01/19 11:49:48;;;;;;;42.00;25.20;;;3.30;93.60;;;;;;10416035;28;20224;-65
2024/01/19 11:54:52;;;;;;;41.60;26.83;;;3.20;93.10;;;;;;10406739;28;20690;-63
2024/01/19 11:59:56;;;;;;;40.27;25.13;;;3.20;93.20;;;;;;10413806;28;20225;-64
2024/01/19 12:05:02;;;;;;;41.60;24.87;;;3.20;93.50;;;;;;10412569;28;20207;-65
2024/01/19 12:10:07;;;;;;;36.80;23.77;;;3.20;93.30;;;;;;10425890;28;20596;-63
2024/01/19 12:15:11;;;;;;;37.87;25.30;;;3.20;94.10;;;;;;10416263;28;20288;-63
2024/01/19 12:20:18;;;;;;;32.07;21.00;;;3.30;93.70;;;;;;10433364;28;20622;-64
2024/01/19 12:25:25;;;;;;;31.80;20.73;;;3.40;93.20;;;;;;10410746;28;20240;-63
2024/01/19 12:30:32;;;;;;;28.60;18.67;;;3.60;93.40;;;;;;10410551;28;20269;-65
2024/01/19 12:35:38;;;;;;;29.77;19.47;;;3.60;93.00;;;;;;10410245;28;20735;-62
2024/01/19 12:40:43;;;;;;;26.23;17.03;;;3.50;93.20;;;;;;10413757;28;20221;-61
2024/01/19 12:45:46;;;;;;;30.07;16.80;;;3.60;93.40;;;;;;10428020;28;20201;-64
2024/01/19 12:50:51;;;;;;;28.37;17.70;;;3.70;93.00;;;;;;10450994;28;20217;-63
2024/01/19 12:55:55;;;;;;;26.13;16.87;;;3.60;92.80;;;;;;10435924;28;20263;-63
2024/01/19 13:01:06;;;;;;;26.73;16.70;;;3.50;93.20;;;;;;10420597;28;20287;-64
2024/01/19 13:06:11;;;;;;;27.07;17.07;;;3.50;93.50;;;;;;10441455;28;20197;-66
2024/01/19 13:11:15;;;;;;;27.60;16.87;;;3.50;93.30;;;;;;10426189;28;20224;-64
2024/01/19 13:16:19;;;;;;;24.37;16.47;;;3.50;94.00;;;;;;10414542;28;20214;-63
2024/01/19 13:21:25;;;;;;;31.63;17.83;;;3.50;93.60;;;;;;10408812;28;20244;-64
2024/01/19 13:26:30;;;;;;;28.57;17.43;;;3.50;93.60;;;;;;10409106;28;20227;-62
2024/01/19 13:31:34;;;;;;;32.43;19.43;;;3.60;93.50;;;;;;10414012;28;20217;-65
2024/01/19 13:36:39;;;;;;;27.97;17.70;;;3.60;93.70;;;;;;10417661;28;20566;-65
2024/01/19 13:41:43;;;;;;;30.97;19.20;;;3.60;93.60;;;;;;10417164;28;20235;-64
2024/01/19 13:46:47;;;;;;;27.67;16.93;;;3.60;93.90;;;;;;10416747;28;20270;-62
2024/01/19 13:51:52;;;;;;;29.97;17.10;;;3.60;93.60;;;;;;10429666;28;20221;-62
2024/01/19 13:56:56;;;;;;;24.67;16.00;;;3.60;93.50;;;;;;10417152;28;20198;-64
2024/01/19 14:01:59;;;;;;;25.87;16.67;;;3.60;93.30;;;;;;10416858;28;20272;-64
2024/01/19 14:07:05;;;;;;;28.87;16.77;;;3.60;93.50;;;;;;10405612;28;20264;-64
2024/01/19 14:12:09;;;;;;;30.27;18.00;;;3.50;93.40;;;;;;10398791;28;20293;-66
2024/01/19 14:17:13;;;;;;;29.10;18.10;;;3.60;94.30;;;;;;10416445;28;20207;-63
2024/01/19 14:22:18;;;;;;;34.03;19.00;;;3.60;93.70;;;;;;10416577;28;20631;-68
2024/01/19 14:27:23;;;;;;;31.25;21.83;;;3.70;93.50;;;;;;10415588;28;20438;-69
2024/01/19 14:32:27;;;;;;;32.80;19.80;;;3.80;93.50;;;;;;10416182;28;20830;-61
2024/01/19 14:37:32;;;;;;;29.33;18.63;;;3.80;93.80;;;;;;10415615;28;20541;-62
2024/01/19 14:42:36;;;;;;;32.43;18.67;;;3.80;93.60;;;;;;10419352;28;20217;-64
2024/01/19 14:47:41;;;;;;;35.13;19.07;;;3.70;93.40;;;;;;10413234;28;20207;-64
2024/01/19 14:52:46;;;;;;;53.60;34.03;;;3.70;94.00;;;;;;10414720;28;20303;-65
2024/01/19 14:57:50;;;;;;;34.13;19.77;;;3.60;93.70;;;;;;10414466;28;20201;-65
2024/01/19 15:02:54;;;;;;;30.47;17.97;;;3.60;94.60;;;;;;10414037;28;20279;-63
2024/01/19 15:07:59;;;;;;;33.13;20.03;;;3.60;94.40;;;;;;10416686;28;20675;-64
2024/01/19 15:13:08;;;;;;;29.27;18.00;;;3.50;94.40;;;;;;10450764;28;20280;-64
2024/01/19 15:18:15;;;;;;;30.77;18.70;;;3.50;93.90;;;;;;10417360;28;20206;-64
2024/01/19 15:23:20;;;;;;;30.17;18.20;;;3.50;94.50;;;;;;10428011;28;21919;-66
2024/01/19 15:28:24;;;;;;;28.17;18.60;;;3.40;93.90;;;;;;10425468;28;20267;-60
2024/01/19 15:33:27;;;;;;;31.73;19.33;;;3.40;94.10;;;;;;10416602;28;20221;-61
2024/01/19 15:38:33;;;;;;;29.27;19.60;;;3.40;93.70;;;;;;10419056;28;20679;-59
2024/01/19 15:43:36;;;;;;;32.10;19.07;;;3.30;94.10;;;;;;10426413;28;20223;-61
2024/01/19 15:48:40;;;;;;;29.90;20.40;;;3.30;94.00;;;;;;10418564;28;20230;-61
2024/01/19 15:53:56;;;;;;;33.63;21.27;;;3.30;94.30;;;;;;10416639;28;20293;-61
2024/01/19 15:59:00;;;;;;;28.00;19.17;;;3.20;94.50;;;;;;10416452;28;20209;-61
2024/01/19 16:04:04;;;;;;;31.00;19.47;;;3.20;94.60;;;;;;10410505;28;20224;-61
2024/01/19 16:09:13;;;;;;;29.90;19.70;;;3.10;94.30;;;;;;10434246;28;20211;-60
2024/01/19 16:14:17;;;;;;;31.40;20.03;;;3.10;94.60;;;;;;10425436;28;20205;-65
2024/01/19 16:19:20;;;;;;;30.87;20.00;;;3.10;94.40;;;;;;10427291;28;20224;-65
2024/01/19 16:24:25;;;;;;;29.10;18.73;;;3.10;94.50;;;;;;10419299;28;20246;-65
2024/01/19 16:29:30;;;;;;;31.33;19.30;;;3.00;94.40;;;;;;10418251;28;20227;-67
2024/01/19 16:34:33;;;;;;;30.33;18.03;;;2.90;94.70;;;;;;10431687;28;20200;-66
2024/01/19 16:39:38;;;;;;;32.90;20.17;;;2.90;94.50;;;;;;10423201;28;20220;-67
2024/01/19 16:44:42;;;;;;;33.73;19.73;;;2.90;94.90;;;;;;10419164;28;20206;-66
2024/01/19 16:49:46;;;;;;;33.40;24.40;;;2.90;94.30;;;;;;10420767;28;20445;-67
2024/01/19 16:54:51;;;;;;;30.43;18.67;;;3.00;94.40;;;;;;10433505;28;20219;-66
2024/01/19 16:59:55;;;;;;;34.63;19.30;;;3.00;94.20;;;;;;10419573;28;20285;-66
2024/01/19 17:04:59;;;;;;;30.63;19.27;;;2.90;94.20;;;;;;10424007;28;20279;-65
2024/01/19 17:10:05;;;;;;;33.40;20.33;;;2.90;94.30;;;;;;10423535;28;20764;-66
2024/01/19 17:15:10;;;;;;;36.95;26.35;;;2.90;94.10;;;;;;10412887;28;20433;-66
2024/01/19 17:20:14;;;;;;;33.90;20.97;;;3.00;93.50;;;;;;10418295;28;20226;-66
2024/01/19 17:25:19;;;;;;;30.67;18.17;;;3.00;94.00;;;;;;10418612;28;20227;-66
2024/01/19 17:30:24;;;;;;;31.93;18.23;;;2.90;93.40;;;;;;10412652;28;20286;-66
2024/01/19 17:35:28;;;;;;;30.97;19.10;;;2.80;93.50;;;;;;10408866;28;20197;-66
2024/01/19 17:40:33;;;;;;;29.67;17.77;;;2.80;93.80;;;;;;10410880;28;20249;-66
2024/01/19 17:45:37;;;;;;;29.50;18.23;;;2.70;93.80;;;;;;10410540;28;20913;-66
2024/01/19 17:50:41;;;;;;;30.40;19.40;;;2.70;94.00;;;;;;10411672;28;20562;-65
2024/01/19 17:55:46;;;;;;;29.07;17.93;;;2.60;94.10;;;;;;10410790;28;20192;-66
2024/01/19 18:00:49;;;;;;;34.87;19.43;;;2.60;93.90;;;;;;10416812;28;20223;-66
2024/01/19 18:05:54;;;;;;;33.10;18.17;;;2.60;94.50;;;;;;10409590;28;20613;-66
2024/01/19 18:11:00;;;;;;;33.80;18.37;;;2.60;94.10;;;;;;10416454;28;20640;-65
2024/01/19 18:16:04;;;;;;;32.40;18.97;;;2.60;94.40;;;;;;10416146;28;20212;-65
2024/01/19 18:21:08;;;;;;;34.37;19.27;;;2.50;94.00;;;;;;10422824;28;20219;-66
2024/01/19 18:26:14;;;;;;;31.67;19.53;;;2.50;94.00;;;;;;10421658;28;20246;-68
2024/01/19 18:31:17;;;;;;;35.40;19.83;;;2.40;94.20;;;;;;10423000;28;20281;-66
2024/01/19 18:36:21;;;;;;;29.73;18.53;;;2.40;94.10;;;;;;10428758;28;20195;-66
2024/01/19 18:41:26;;;;;;;32.03;18.93;;;2.40;94.20;;;;;;10428259;28;20218;-67
2024/01/19 18:46:30;;;;;;;32.07;18.30;;;2.40;94.70;;;;;;10433974;28;20805;-67
2024/01/19 18:51:33;;;;;;;30.03;18.67;;;2.40;94.50;;;;;;10426624;28;20218;-68
2024/01/19 18:56:38;;;;;;;33.90;18.90;;;2.40;94.40;;;;;;10428321;28;20265;-67
2024/01/19 19:01:42;;;;;;;32.50;19.57;;;2.30;94.90;;;;;;10426536;28;20906;-66
2024/01/19 19:06:46;;;;;;;33.43;19.00;;;2.30;94.50;;;;;;10417243;28;20226;-67
2024/01/19 19:11:53;;;;;;;32.00;20.10;;;2.30;94.70;;;;;;10416147;28;20609;-67
2024/01/19 19:16:58;;;;;;;35.27;19.10;;;2.20;94.20;;;;;;10413763;28;20215;-67
2024/01/19 19:22:02;;;;;;;31.97;18.90;;;2.20;94.40;;;;;;10430275;28;20285;-66
2024/01/19 19:27:07;;;;;;;32.37;19.63;;;2.10;94.90;;;;;;10430599;28;20227;-66
2024/01/19 19:32:10;;;;;;;29.67;18.67;;;2.10;95.00;;;;;;10429261;28;20258;-67
2024/01/19 19:37:18;;;;;;;39.90;22.80;;;2.10;95.00;;;;;;10416754;28;20257;-66
2024/01/19 19:42:23;;;;;;;32.67;21.83;;;2.10;95.10;;;;;;10418911;28;20231;-67
2024/01/19 19:47:27;;;;;;;62.13;45.45;;;2.00;95.40;;;;;;10418335;28;21187;-67
2024/01/19 19:52:31;;;;;;;34.80;22.63;;;2.10;94.50;;;;;;10425966;28;20223;-68
2024/01/19 19:57:37;;;;;;;34.77;22.47;;;2.10;95.00;;;;;;10421353;28;20266;-67
2024/01/19 20:02:41;;;;;;;32.17;20.73;;;2.00;94.50;;;;;;10419020;28;20226;-61
2024/01/19 20:07:45;;;;;;;35.73;22.77;;;2.00;94.50;;;;;;10419355;28;20254;-63
2024/01/19 20:12:50;;;;;;;31.80;18.40;;;2.00;94.90;;;;;;10423698;28;20772;-64
2024/01/19 20:17:53;;;;;;;33.63;21.20;;;2.00;95.20;;;;;;10412180;28;20233;-64
2024/01/19 20:22:57;;;;;;;50.50;35.17;;;2.00;94.60;;;;;;10413070;28;20277;-64
2024/01/19 20:28:03;;;;;;;43.17;27.27;;;1.90;94.70;;;;;;10415084;28;20577;-63
2024/01/19 20:33:07;;;;;;;38.80;21.13;;;1.90;94.80;;;;;;10418926;28;20241;-65
2024/01/19 20:38:11;;;;;;;41.37;25.93;;;1.80;95.00;;;;;;10411630;28;20207;-64
2024/01/19 20:43:16;;;;;;;43.37;27.70;;;1.80;95.30;;;;;;10420255;28;20585;-64
2024/01/19 20:48:20;;;;;;;34.50;20.93;;;1.80;95.20;;;;;;10421403;28;20269;-63
2024/01/19 20:53:25;;;;;;;34.83;21.27;;;1.80;94.70;;;;;;10414145;28;20218;-63
2024/01/19 20:58:30;;;;;;;45.70;30.03;;;1.70;94.90;;;;;;10418511;28;20202;-63
2024/01/19 21:03:33;;;;;;;45.23;31.00;;;1.80;95.00;;;;;;10416415;28;20608;-63
2024/01/19 21:08:37;;;;;;;39.87;23.43;;;1.70;95.00;;;;;;10410226;28;20227;-66
2024/01/19 21:13:42;;;;;;;31.67;19.10;;;1.70;95.10;;;;;;10422052;28;20281;-64
2024/01/19 21:18:46;;;;;;;45.97;30.90;;;1.70;94.90;;;;;;10420316;28;20230;-64
2024/01/19 21:23:50;;;;;;;38.80;22.23;;;1.70;95.00;;;;;;10416912;28;20222;-64
2024/01/19 21:28:56;;;;;;;30.90;18.97;;;1.70;95.20;;;;;;10413492;28;20719;-65
2024/01/19 21:33:59;;;;;;;30.27;18.93;;;1.70;95.10;;;;;;10420457;28;20227;-65
2024/01/19 21:39:03;;;;;;;26.80;17.20;;;1.70;95.00;;;;;;10414590;28;20207;-63
2024/01/19 21:44:08;;;;;;;27.73;18.03;;;1.70;94.60;;;;;;10416726;28;20222;-62
2024/01/19 21:49:12;;;;;;;31.33;18.53;;;1.70;94.70;;;;;;10407917;28;20203;-62
2024/01/19 21:54:16;;;;;;;31.47;18.30;;;1.60;94.80;;;;;;10421928;28;20605;-66
2024/01/19 21:59:21;;;;;;;32.40;18.53;;;1.50;94.70;;;;;;10427222;28;20237;-65
2024/01/19 22:04:25;;;;;;;34.03;20.17;;;1.50;94.80;;;;;;10419517;28;20210;-64
2024/01/19 22:09:29;;;;;;;34.90;19.00;;;1.50;94.70;;;;;;10422467;28;20277;-63
2024/01/19 22:14:34;;;;;;;31.27;18.97;;;1.50;94.90;;;;;;10425892;28;20565;-64
2024/01/19 22:19:38;;;;;;;34.53;20.73;;;1.50;94.90;;;;;;10440925;28;20230;-61
2024/01/19 22:24:41;;;;;;;37.47;21.37;;;1.50;95.10;;;;;;10426120;28;20219;-63
2024/01/19 22:29:46;;;;;;;39.10;23.07;;;1.50;95.30;;;;;;10417780;28;20220;-65
2024/01/19 22:34:50;;;;;;;38.30;22.30;;;1.50;95.40;;;;;;10420614;28;20227;-63
2024/01/19 22:39:54;;;;;;;51.70;29.53;;;1.60;95.50;;;;;;10420579;28;20277;-63
2024/01/19 22:44:59;;;;;;;37.07;20.90;;;1.60;95.70;;;;;;10423659;28;20246;-63
2024/01/19 22:50:03;;;;;;;43.00;28.03;;;1.70;95.70;;;;;;10417176;28;20294;-64
2024/01/19 22:55:08;;;;;;;36.17;20.47;;;1.70;95.40;;;;;;10417218;28;20199;-65
2024/01/19 23:00:15;;;;;;;34.37;19.47;;;1.70;95.20;;;;;;10414932;28;20722;-65
2024/01/19 23:05:19;;;;;;;40.10;21.93;;;1.70;95.60;;;;;;10410545;28;20215;-63
2024/01/19 23:10:23;;;;;;;31.20;18.50;;;1.70;95.40;;;;;;10446914;28;20231;-63
2024/01/19 23:15:28;;;;;;;34.27;19.27;;;1.70;95.10;;;;;;10423209;28;20212;-62
2024/01/19 23:20:32;;;;;;;28.90;17.30;;;1.60;95.50;;;;;;10416063;28;20235;-64
2024/01/19 23:25:36;;;;;;;27.27;15.87;;;1.60;95.00;;;;;;10422544;28;20219;-62
2024/01/19 23:30:42;;;;;;;26.27;15.57;;;1.60;95.50;;;;;;10415612;28;20254;-62
2024/01/19 23:35:46;;;;;;;28.77;16.63;;;1.60;95.00;;;;;;10413233;28;20261;-64
2024/01/19 23:40:50;;;;;;;25.03;14.13;;;1.60;95.00;;;;;;10413039;28;20245;-63
2024/01/19 23:45:55;;;;;;;23.23;13.10;;;1.50;94.80;;;;;;10412762;28;20270;-64
2024/01/19 23:50:59;;;;;;;40.17;25.30;;;1.50;94.80;;;;;;10412561;28;20628;-64
2024/01/19 23:56:02;;;;;;;26.83;16.87;;;1.50;94.90;;;;;;10412085;28;20242;-63
